Argenta, Illinois
Current Conditions -  °F | °C
As of 5:54 PM on Tuesday 25 Nov 2014 (Local Time) from KDEC Reporting Station
Clear Clear  
Wind Chill: 29°   Ceiling: Unl
Heat Index: 29°   Visibility: 10mi
Dew Point: 23°   Wind: 3mph
Humidity: 78%   Direction: 120°ESE
Pressure: 30.18"   Gusts: NA
Location:  39.98°N, 88.82°W
Report Text: KDEC 252354Z 12003KT 10SM CLR M02/M05 A3018 RMK AO2 SLP229 T10171050 10000 21022 53009
Loading
Personal Weather Stations






























Interactive Weather Map New forecast layout! Learn more

10-Day Weather Forecast

Advertisements
Track Severe Weather on mobile